createdAt,value
2023-09-12T00:00:53.359Z,15.70
2023-09-12T00:01:56.004Z,15.67
2023-09-12T00:02:58.547Z,15.65
2023-09-12T00:04:01.587Z,15.63
2023-09-12T00:05:05.198Z,15.60
2023-09-12T00:06:08.039Z,15.58
2023-09-12T00:07:10.587Z,15.58
2023-09-12T00:08:14.094Z,15.55
2023-09-12T00:09:16.837Z,15.54
2023-09-12T00:10:19.610Z,15.52
2023-09-12T00:11:23.772Z,15.46
2023-09-12T00:12:26.208Z,15.40
2023-09-12T00:13:29.229Z,15.40
2023-09-12T00:14:32.014Z,15.40
2023-09-12T00:15:34.360Z,15.39
2023-09-12T00:16:36.856Z,15.35
2023-09-12T00:17:39.149Z,15.39
2023-09-12T00:18:42.679Z,15.41
2023-09-12T00:19:45.325Z,15.41
2023-09-12T00:20:47.773Z,15.45
2023-09-12T00:21:50.629Z,15.49
2023-09-12T00:22:54.814Z,15.54
2023-09-12T00:23:57.233Z,15.58
2023-09-12T00:24:59.505Z,15.61
2023-09-12T00:26:02.089Z,15.68
2023-09-12T00:27:06.342Z,15.71
2023-09-12T00:28:08.632Z,15.73
2023-09-12T00:29:12.075Z,15.77
2023-09-12T00:30:16.058Z,15.79
2023-09-12T00:31:18.662Z,15.84
2023-09-12T00:32:21.005Z,15.88
2023-09-12T00:33:23.350Z,15.92
2023-09-12T00:34:27.682Z,15.96
2023-09-12T00:35:31.005Z,15.96
2023-09-12T00:36:33.654Z,16.01
2023-09-12T00:37:36.272Z,16.02
2023-09-12T00:38:38.695Z,16.01
2023-09-12T00:39:41.105Z,16.00
2023-09-12T00:40:44.278Z,15.97
2023-09-12T00:41:46.824Z,15.97
2023-09-12T00:42:49.418Z,15.91
2023-09-12T00:43:51.577Z,15.84
2023-09-12T00:44:54.053Z,15.79
2023-09-12T00:45:57.632Z,15.73
2023-09-12T00:47:02.576Z,15.68
2023-09-12T00:48:07.177Z,15.63
2023-09-12T00:49:10.885Z,15.59
2023-09-12T00:50:15.571Z,15.53
2023-09-12T00:51:21.523Z,15.46
2023-09-12T00:52:26.898Z,15.44
2023-09-12T00:53:31.350Z,15.41
2023-09-12T00:54:33.850Z,15.40
2023-09-12T00:55:39.602Z,15.37
2023-09-12T00:56:43.388Z,15.34
2023-09-12T00:57:46.976Z,15.31
2023-09-12T00:58:52.178Z,15.28
2023-09-12T00:59:56.197Z,15.26
2023-09-12T01:00:59.193Z,15.23
2023-09-12T01:02:03.367Z,15.17
2023-09-12T01:03:06.116Z,15.15
2023-09-12T01:04:20.444Z,15.12
2023-09-12T01:05:16.768Z,15.12
2023-09-12T01:06:22.013Z,15.12
2023-09-12T01:07:25.213Z,15.10
2023-09-12T01:08:28.076Z,15.10
2023-09-12T01:09:33.018Z,15.10
2023-09-12T01:10:35.675Z,15.06
2023-09-12T01:11:38.762Z,15.06
2023-09-12T01:12:41.442Z,15.04
2023-09-12T01:13:43.768Z,15.03
2023-09-12T01:14:46.822Z,15.00
2023-09-12T01:15:49.605Z,14.99
2023-09-12T01:16:52.306Z,15.00
2023-09-12T01:17:55.145Z,15.04
2023-09-12T01:18:57.785Z,15.08
2023-09-12T01:20:05.185Z,15.12
2023-09-12T01:21:26.229Z,15.18
2023-09-12T01:22:49.106Z,15.25
2023-09-12T01:24:16.454Z,15.28
2023-09-12T01:25:48.513Z,15.31
2023-09-12T01:27:00.775Z,15.34
2023-09-12T01:28:06.642Z,15.39
2023-09-12T01:29:11.655Z,15.42
2023-09-12T01:30:17.814Z,15.42
2023-09-12T01:31:20.661Z,15.42
2023-09-12T01:32:23.455Z,15.45
2023-09-12T01:33:26.611Z,15.47
2023-09-12T01:34:29.010Z,15.49
2023-09-12T01:35:32.397Z,15.52
2023-09-12T01:36:35.261Z,15.57
2023-09-12T01:37:38.139Z,15.60
2023-09-12T01:38:41.809Z,15.65
2023-09-12T01:39:44.472Z,15.70
2023-09-12T01:40:50.374Z,15.71
2023-09-12T01:41:55.283Z,15.74
2023-09-12T01:42:59.593Z,15.77
2023-09-12T01:44:03.750Z,15.80
2023-09-12T01:45:10.099Z,15.81
2023-09-12T01:46:15.035Z,15.85
2023-09-12T01:47:20.632Z,15.88
2023-09-12T01:48:27.271Z,15.90
2023-09-12T01:49:30.798Z,15.87
2023-09-12T01:50:36.075Z,15.69
2023-09-12T01:51:38.911Z,15.67
2023-09-12T01:52:42.174Z,15.67
2023-09-12T01:53:46.658Z,15.72
2023-09-12T01:54:51.852Z,15.76
2023-09-12T01:55:56.950Z,15.79
2023-09-12T01:56:59.666Z,15.83
2023-09-12T01:58:02.607Z,15.84
2023-09-12T01:59:06.233Z,15.86
2023-09-12T02:00:12.622Z,15.83
2023-09-12T02:01:16.325Z,15.80
2023-09-12T02:02:19.746Z,15.80
2023-09-12T02:03:22.419Z,15.83
2023-09-12T02:04:24.843Z,15.83
2023-09-12T02:05:27.289Z,15.84
2023-09-12T02:06:30.086Z,15.86
2023-09-12T02:07:36.088Z,15.83
2023-09-12T02:08:39.236Z,15.76
2023-09-12T02:09:42.505Z,15.73
2023-09-12T02:10:45.124Z,15.62
2023-09-12T02:11:48.794Z,15.57
2023-09-12T02:12:51.381Z,15.48
2023-09-12T02:13:53.691Z,15.30
2023-09-12T02:14:55.886Z,15.30
2023-09-12T02:16:04.541Z,15.20
2023-09-12T02:17:08.491Z,15.10
2023-09-12T02:18:13.898Z,15.01
2023-09-12T02:19:16.219Z,14.91
2023-09-12T02:20:20.044Z,14.79
2023-09-12T02:21:23.391Z,14.71
2023-09-12T02:22:25.612Z,14.63
2023-09-12T02:23:27.777Z,14.58
2023-09-12T02:24:30.624Z,14.50
2023-09-12T02:25:33.423Z,14.46
2023-09-12T02:26:36.779Z,14.40
2023-09-12T02:27:39.411Z,14.37
2023-09-12T02:28:42.809Z,14.31
2023-09-12T02:29:45.313Z,14.27
2023-09-12T02:30:47.803Z,14.21
2023-09-12T02:31:50.177Z,14.18
2023-09-12T02:32:52.380Z,14.17
2023-09-12T02:33:57.548Z,14.19
2023-09-12T02:35:00.484Z,14.21
2023-09-12T02:36:03.729Z,14.22
2023-09-12T02:37:06.307Z,14.26
2023-09-12T02:38:08.783Z,14.29
2023-09-12T02:39:11.218Z,14.31
2023-09-12T02:40:15.652Z,14.33
2023-09-12T02:41:18.307Z,14.36
2023-09-12T02:42:20.513Z,14.41
2023-09-12T02:43:23.612Z,14.41
2023-09-12T02:44:25.881Z,14.44
2023-09-12T02:45:28.232Z,14.46
2023-09-12T02:46:31.272Z,14.48
2023-09-12T02:47:34.372Z,14.53
2023-09-12T02:48:36.802Z,14.56
2023-09-12T02:49:38.965Z,14.57
2023-09-12T02:50:43.829Z,14.57
2023-09-12T02:51:47.011Z,14.60
2023-09-12T02:52:49.806Z,14.61
2023-09-12T02:53:52.560Z,14.63
2023-09-12T02:54:54.942Z,14.64
2023-09-12T02:55:57.465Z,14.66
2023-09-12T02:57:00.810Z,14.63
2023-09-12T02:58:03.282Z,14.57
2023-09-12T02:59:06.049Z,14.53
2023-09-12T03:00:09.703Z,14.52
2023-09-12T03:01:20.283Z,14.44
2023-09-12T03:02:23.056Z,14.38
2023-09-12T03:03:25.387Z,14.36
2023-09-12T03:04:29.679Z,14.31
2023-09-12T03:05:32.529Z,14.27
2023-09-12T03:06:36.169Z,14.26
2023-09-12T03:07:39.143Z,14.25
2023-09-12T03:08:42.587Z,14.21
2023-09-12T03:09:45.395Z,14.15
2023-09-12T03:10:51.504Z,14.13
2023-09-12T03:11:53.943Z,14.14
2023-09-12T03:12:56.680Z,14.14
2023-09-12T03:13:59.087Z,14.14
2023-09-12T03:15:01.490Z,14.13
2023-09-12T03:16:04.757Z,14.13
2023-09-12T03:17:07.524Z,14.14
2023-09-12T03:18:11.614Z,14.13
2023-09-12T03:19:14.018Z,14.12
2023-09-12T03:20:16.647Z,14.11
2023-09-12T03:21:19.281Z,14.11
2023-09-12T03:22:21.675Z,14.11
2023-09-12T03:23:24.060Z,14.07
2023-09-12T03:24:26.575Z,13.96
2023-09-12T03:25:28.883Z,13.86
2023-09-12T03:26:31.211Z,13.85
2023-09-12T03:27:33.641Z,13.84
2023-09-12T03:28:36.431Z,13.86
2023-09-12T03:29:39.456Z,13.84
2023-09-12T03:30:42.328Z,13.85
2023-09-12T03:31:46.183Z,13.89
2023-09-12T03:32:48.999Z,13.87
2023-09-12T03:33:52.678Z,13.91
2023-09-12T03:34:55.443Z,13.92
2023-09-12T03:35:57.912Z,13.95
2023-09-12T03:37:00.438Z,13.98
2023-09-12T03:38:03.202Z,14.00
2023-09-12T03:39:07.461Z,14.01
2023-09-12T03:40:11.974Z,14.03
2023-09-12T03:41:14.802Z,14.07
2023-09-12T03:42:17.280Z,14.12
2023-09-12T03:43:19.740Z,14.15
2023-09-12T03:44:22.011Z,14.20
2023-09-12T03:45:25.512Z,14.28
2023-09-12T03:46:28.254Z,14.33
2023-09-12T03:47:30.840Z,14.35
2023-09-12T03:48:35.638Z,14.39
2023-09-12T03:49:37.975Z,14.29
2023-09-12T03:50:40.443Z,14.28
2023-09-12T03:51:42.959Z,14.32
2023-09-12T03:52:45.678Z,14.38
2023-09-12T03:53:50.025Z,14.40
2023-09-12T03:54:52.459Z,14.43
2023-09-12T03:55:54.768Z,14.47
2023-09-12T03:56:57.581Z,14.46
2023-09-12T03:58:00.419Z,14.48
2023-09-12T03:59:03.949Z,14.48
2023-09-12T04:00:09.401Z,14.49
2023-09-12T04:01:22.022Z,14.52
2023-09-12T04:02:27.542Z,14.57
2023-09-12T04:03:29.852Z,14.60
2023-09-12T04:04:32.344Z,14.62
2023-09-12T04:05:35.641Z,14.64
2023-09-12T04:06:40.115Z,14.68
2023-09-12T04:07:43.651Z,14.74
2023-09-12T04:08:46.616Z,14.78
2023-09-12T04:09:49.005Z,14.80
2023-09-12T04:10:53.488Z,14.71
2023-09-12T04:11:57.837Z,14.67
2023-09-12T04:13:00.464Z,14.67
2023-09-12T04:14:03.743Z,14.66
2023-09-12T04:15:07.615Z,14.66
2023-09-12T04:16:11.449Z,14.73
2023-09-12T04:17:17.859Z,14.77
2023-09-12T04:18:20.417Z,14.78
2023-09-12T04:19:22.906Z,14.84
2023-09-12T04:20:26.522Z,14.86
2023-09-12T04:21:29.204Z,14.87
2023-09-12T04:22:32.899Z,14.80
2023-09-12T04:23:35.539Z,14.80
2023-09-12T04:24:38.703Z,14.93
2023-09-12T04:25:46.980Z,14.93
2023-09-12T04:26:51.704Z,14.95
2023-09-12T04:27:54.978Z,14.91
2023-09-12T04:28:57.306Z,14.95
2023-09-12T04:29:59.681Z,14.97
2023-09-12T04:31:05.734Z,14.98
2023-09-12T04:32:08.847Z,14.98
2023-09-12T04:33:11.210Z,14.96
2023-09-12T04:34:13.648Z,15.01
2023-09-12T04:35:16.827Z,15.00
2023-09-12T04:36:22.452Z,14.91
2023-09-12T04:37:24.770Z,14.89
2023-09-12T04:38:27.923Z,14.90
2023-09-12T04:39:30.532Z,14.81
2023-09-12T04:40:36.278Z,14.71
2023-09-12T04:41:39.011Z,14.63
2023-09-12T04:42:41.369Z,14.63
2023-09-12T04:43:45.303Z,14.63
2023-09-12T04:44:47.868Z,14.61
2023-09-12T04:45:51.342Z,14.56
2023-09-12T04:46:54.546Z,14.53
2023-09-12T04:47:56.770Z,14.66
2023-09-12T04:48:59.449Z,14.76
2023-09-12T04:50:02.550Z,14.80
2023-09-12T04:51:05.528Z,14.76
2023-09-12T04:52:08.075Z,14.81
2023-09-12T04:53:11.277Z,14.85
2023-09-12T04:54:13.529Z,14.92
2023-09-12T04:55:15.678Z,14.97
2023-09-12T04:56:18.245Z,15.02
2023-09-12T04:57:21.078Z,15.07
2023-09-12T04:58:23.604Z,15.12
2023-09-12T04:59:26.004Z,15.17
2023-09-12T05:00:28.479Z,15.06
2023-09-12T05:01:30.873Z,15.08
2023-09-12T05:02:33.493Z,15.10
2023-09-12T05:03:37.721Z,15.13
2023-09-12T05:04:40.775Z,15.18
2023-09-12T05:05:46.716Z,15.22
2023-09-12T05:06:49.451Z,15.29
2023-09-12T05:07:54.644Z,15.32
2023-09-12T05:08:57.382Z,15.33
2023-09-12T05:10:00.260Z,15.31
2023-09-12T05:11:03.474Z,15.34
2023-09-12T05:12:06.208Z,15.25
2023-09-12T05:13:09.100Z,15.33
2023-09-12T05:14:11.931Z,15.35
2023-09-12T05:15:14.803Z,15.23
2023-09-12T05:16:17.583Z,15.28
2023-09-12T05:17:20.446Z,15.31
2023-09-12T05:18:25.023Z,15.31
2023-09-12T05:19:27.378Z,15.30
2023-09-12T05:20:29.694Z,15.35
2023-09-12T05:21:32.384Z,15.30
2023-09-12T05:22:34.638Z,15.31
2023-09-12T05:23:37.296Z,15.32
2023-09-12T05:24:40.720Z,15.23
2023-09-12T05:25:43.935Z,15.24
2023-09-12T05:26:48.951Z,15.26
2023-09-12T05:27:51.470Z,15.31
2023-09-12T05:28:53.752Z,15.34
2023-09-12T05:29:56.474Z,15.41
2023-09-12T05:30:59.236Z,15.46
2023-09-12T05:32:02.585Z,15.53
2023-09-12T05:33:05.224Z,15.47
2023-09-12T05:34:08.067Z,15.41
2023-09-12T05:35:21.332Z,15.53
2023-09-12T05:36:17.055Z,15.57
2023-09-12T05:37:21.719Z,15.54
2023-09-12T05:38:24.195Z,15.46
2023-09-12T05:39:26.576Z,15.56
2023-09-12T05:40:30.332Z,15.64
2023-09-12T05:41:32.837Z,15.63
2023-09-12T05:42:35.247Z,15.63
2023-09-12T05:43:37.720Z,15.68
2023-09-12T05:44:40.648Z,15.63
2023-09-12T05:45:45.692Z,15.65
2023-09-12T05:46:50.345Z,15.58
2023-09-12T05:47:53.006Z,15.63
2023-09-12T05:48:55.712Z,15.73
2023-09-12T05:50:01.899Z,15.81
2023-09-12T05:51:05.530Z,15.87
2023-09-12T05:52:07.984Z,15.93
2023-09-12T05:53:10.884Z,16.04
2023-09-12T05:54:16.750Z,16.13
2023-09-12T05:55:19.247Z,16.04
2023-09-12T05:56:21.658Z,16.10
2023-09-12T05:57:24.547Z,16.10
2023-09-12T05:58:27.374Z,16.11
2023-09-12T05:59:32.102Z,16.15
2023-09-12T06:00:34.961Z,16.28
2023-09-12T06:01:37.191Z,16.40
2023-09-12T06:02:40.766Z,16.45
2023-09-12T06:03:43.372Z,16.33
2023-09-12T06:04:46.517Z,16.37
2023-09-12T06:05:49.541Z,16.44
2023-09-12T06:06:52.869Z,16.53
2023-09-12T06:07:56.043Z,16.54
2023-09-12T06:08:59.339Z,16.46
2023-09-12T06:10:03.282Z,16.39
2023-09-12T06:11:06.000Z,16.38
2023-09-12T06:12:08.480Z,16.41
2023-09-12T06:13:13.176Z,16.40
2023-09-12T06:14:15.518Z,16.44
2023-09-12T06:15:18.474Z,16.57
2023-09-12T06:16:21.113Z,16.60
2023-09-12T06:17:23.497Z,16.63
2023-09-12T06:18:28.178Z,16.66
2023-09-12T06:19:31.104Z,16.63
2023-09-12T06:20:34.526Z,16.55
2023-09-12T06:21:36.800Z,16.58
2023-09-12T06:22:39.240Z,16.55
2023-09-12T06:23:42.546Z,16.54
2023-09-12T06:24:45.495Z,16.52
2023-09-12T06:25:48.804Z,16.52
2023-09-12T06:26:51.352Z,16.58
2023-09-12T06:27:53.686Z,16.60
2023-09-12T06:28:57.175Z,16.58
2023-09-12T06:29:59.857Z,16.59
2023-09-12T06:31:02.460Z,16.70
2023-09-12T06:32:06.349Z,16.83
2023-09-12T06:33:08.769Z,16.96
2023-09-12T06:34:11.254Z,17.07
2023-09-12T06:35:13.460Z,17.15
2023-09-12T06:36:16.829Z,17.13
2023-09-12T06:37:19.207Z,17.22
2023-09-12T06:38:23.796Z,17.27
2023-09-12T06:39:26.703Z,17.25
2023-09-12T06:40:29.189Z,17.19
2023-09-12T06:41:31.468Z,17.17
2023-09-12T06:42:33.948Z,17.16
2023-09-12T06:43:37.050Z,17.07
2023-09-12T06:44:39.831Z,17.02
2023-09-12T06:45:45.969Z,17.09
2023-09-12T06:46:48.605Z,17.13
2023-09-12T06:47:51.164Z,17.19
2023-09-12T06:48:53.525Z,17.21
2023-09-12T06:49:56.977Z,17.16
2023-09-12T06:50:59.458Z,17.21
2023-09-12T06:52:02.231Z,17.27
2023-09-12T06:53:07.597Z,17.32
2023-09-12T06:54:09.890Z,17.35
2023-09-12T06:55:12.186Z,17.40
2023-09-12T06:56:15.417Z,17.39
2023-09-12T06:57:17.560Z,17.42
2023-09-12T06:58:19.924Z,17.44
2023-09-12T06:59:22.172Z,17.48
2023-09-12T07:00:25.673Z,17.53
2023-09-12T07:01:28.136Z,17.54
2023-09-12T07:02:30.984Z,17.55
2023-09-12T07:03:34.747Z,17.60
2023-09-12T07:04:37.411Z,17.61
2023-09-12T07:05:40.668Z,17.62
2023-09-12T07:06:43.621Z,17.67
2023-09-12T07:07:46.146Z,17.70
2023-09-12T07:08:48.754Z,17.69
2023-09-12T07:09:51.766Z,17.66
2023-09-12T07:12:07.596Z,17.93
2023-09-12T07:13:10.102Z,17.81
2023-09-12T07:14:13.152Z,17.84
2023-09-12T07:15:15.618Z,17.88
2023-09-12T07:16:19.138Z,17.91
2023-09-12T07:17:21.579Z,17.96
2023-09-12T07:18:24.380Z,17.97
2023-09-12T07:19:26.716Z,17.95
2023-09-12T07:20:28.860Z,18.01
2023-09-12T07:21:33.699Z,18.07
2023-09-12T07:22:36.207Z,18.13
2023-09-12T07:23:38.655Z,18.11
2023-09-12T07:24:41.184Z,18.18
2023-09-12T07:25:43.501Z,18.18
2023-09-12T07:26:47.494Z,18.23
2023-09-12T07:27:50.256Z,18.28
2023-09-12T07:28:52.978Z,18.30
2023-09-12T07:29:55.350Z,18.32
2023-09-12T07:30:58.729Z,18.35
2023-09-12T07:32:02.157Z,18.39
2023-09-12T07:33:05.227Z,18.42
2023-09-12T07:34:09.499Z,18.45
2023-09-12T07:35:12.524Z,18.48
2023-09-12T07:36:15.954Z,18.51
2023-09-12T07:37:19.456Z,18.51
2023-09-12T07:38:22.452Z,18.57
2023-09-12T07:39:25.159Z,18.59
2023-09-12T07:40:28.124Z,18.60
2023-09-12T07:41:33.291Z,18.63
2023-09-12T07:42:35.879Z,18.70
2023-09-12T07:43:38.586Z,18.79
2023-09-12T07:44:40.958Z,18.79
2023-09-12T07:45:43.360Z,18.82
2023-09-12T07:46:45.947Z,18.80
2023-09-12T07:47:49.407Z,18.83
2023-09-12T07:48:53.690Z,18.82
2023-09-12T07:49:57.221Z,18.94
2023-09-12T07:51:02.007Z,18.94
2023-09-12T07:52:05.075Z,19.01
2023-09-12T07:53:08.313Z,19.04
2023-09-12T07:54:10.888Z,19.11
2023-09-12T07:55:13.411Z,19.14
2023-09-12T07:56:15.900Z,19.14
2023-09-12T07:57:18.296Z,19.17
2023-09-12T07:58:21.389Z,19.21
2023-09-12T07:59:23.924Z,19.25
2023-09-12T08:00:26.412Z,19.27
2023-09-12T08:01:28.984Z,19.30
2023-09-12T08:02:31.508Z,19.31
2023-09-12T08:03:36.623Z,19.37
2023-09-12T08:04:39.289Z,19.38
2023-09-12T08:05:41.867Z,19.33
2023-09-12T08:06:56.990Z,19.41
2023-09-12T08:07:48.548Z,19.44
2023-09-12T08:08:50.953Z,19.48
2023-09-12T08:09:55.471Z,19.56
2023-09-12T08:10:58.456Z,19.60
2023-09-12T08:12:00.643Z,19.64
2023-09-12T08:13:03.970Z,19.70
2023-09-12T08:14:06.342Z,19.70
2023-09-12T08:15:10.826Z,19.69
2023-09-12T08:16:14.507Z,19.73
2023-09-12T08:17:17.667Z,19.71
2023-09-12T08:18:20.614Z,19.76
2023-09-12T08:19:23.936Z,19.84
2023-09-12T08:20:27.801Z,19.89
2023-09-12T08:21:31.467Z,19.97
2023-09-12T08:22:37.864Z,19.97
2023-09-12T08:23:40.368Z,19.99
2023-09-12T08:24:44.015Z,20.07
2023-09-12T08:25:46.932Z,20.14
2023-09-12T08:26:50.758Z,20.17
2023-09-12T08:27:53.378Z,20.22
2023-09-12T08:28:56.044Z,20.24
2023-09-12T08:29:58.538Z,20.29
2023-09-12T08:31:00.942Z,20.36
2023-09-12T08:32:03.921Z,20.35
2023-09-12T08:33:07.448Z,20.33
2023-09-12T08:34:09.910Z,20.40
2023-09-12T08:35:14.114Z,20.39
2023-09-12T08:36:17.200Z,20.46
2023-09-12T08:37:19.668Z,20.52
2023-09-12T08:38:21.843Z,20.46
2023-09-12T08:39:26.767Z,20.48
2023-09-12T08:40:30.985Z,20.50
2023-09-12T08:41:34.456Z,20.53
2023-09-12T08:42:45.049Z,20.57
2023-09-12T08:43:48.947Z,20.59
2023-09-12T08:44:51.247Z,20.66
2023-09-12T08:45:54.271Z,20.69
2023-09-12T08:46:58.491Z,20.74
2023-09-12T08:48:02.534Z,20.80
2023-09-12T08:49:07.552Z,20.87
2023-09-12T08:50:13.608Z,20.93
2023-09-12T08:51:15.970Z,20.87
2023-09-12T08:52:18.227Z,20.93
2023-09-12T08:53:22.398Z,20.98
2023-09-12T08:54:24.736Z,21.00
2023-09-12T08:55:27.234Z,20.93
2023-09-12T08:56:29.973Z,20.90
2023-09-12T08:57:34.110Z,20.92
2023-09-12T08:58:36.959Z,20.99
2023-09-12T08:59:42.742Z,21.07
2023-09-12T09:00:45.544Z,21.16
2023-09-12T09:01:50.595Z,21.22
2023-09-12T09:02:53.761Z,21.29
2023-09-12T09:03:57.511Z,21.26
2023-09-12T09:05:04.640Z,21.29
2023-09-12T09:06:10.204Z,21.22
2023-09-12T09:07:14.631Z,21.27
2023-09-12T09:08:19.345Z,21.33
2023-09-12T09:09:24.092Z,21.31
2023-09-12T09:10:38.336Z,21.39
2023-09-12T09:11:33.326Z,21.36
2023-09-12T09:12:36.933Z,21.39
2023-09-12T09:13:39.783Z,21.45
2023-09-12T09:14:42.882Z,21.49
2023-09-12T09:15:45.568Z,21.51
2023-09-12T09:16:47.951Z,21.52
2023-09-12T09:17:51.708Z,21.57
2023-09-12T09:19:03.920Z,21.64
2023-09-12T09:20:10.666Z,21.70
2023-09-12T09:21:19.163Z,21.72
2023-09-12T09:22:23.655Z,21.70
2023-09-12T09:23:26.515Z,21.65
2023-09-12T09:24:29.018Z,21.72
2023-09-12T09:25:31.649Z,21.70
2023-09-12T09:26:51.742Z,21.65
2023-09-12T09:27:54.962Z,21.65
2023-09-12T09:29:06.092Z,21.70
2023-09-12T09:30:09.734Z,21.76
2023-09-12T09:31:14.320Z,21.83
2023-09-12T09:32:22.049Z,21.86
2023-09-12T09:33:24.832Z,21.95
2023-09-12T09:34:33.367Z,21.98
2023-09-12T09:35:36.532Z,22.02
2023-09-12T09:36:45.380Z,22.04
2023-09-12T09:37:47.879Z,22.02
2023-09-12T09:38:50.460Z,21.92
2023-09-12T09:39:53.045Z,22.02
2023-09-12T09:41:58.667Z,22.04
2023-09-12T09:43:02.038Z,22.09
2023-09-12T09:44:08.985Z,22.12
2023-09-12T09:45:11.930Z,22.17
2023-09-12T09:46:18.730Z,22.27
2023-09-12T09:47:21.988Z,22.24
2023-09-12T09:48:29.212Z,22.22
2023-09-12T09:49:37.463Z,22.32
2023-09-12T09:50:40.446Z,22.38
2023-09-12T09:51:45.912Z,22.36
2023-09-12T09:52:57.043Z,22.42
2023-09-12T09:54:01.834Z,22.41
2023-09-12T09:55:14.130Z,22.48
2023-09-12T09:56:17.759Z,22.53
2023-09-12T09:57:26.783Z,22.56
2023-09-12T09:58:31.211Z,22.58
2023-09-12T09:59:40.109Z,22.46
2023-09-12T10:00:47.755Z,22.34
2023-09-12T10:02:02.458Z,22.40
2023-09-12T10:03:22.300Z,22.49
2023-09-12T10:05:54.172Z,22.63
2023-09-12T10:07:15.694Z,22.64
2023-09-12T10:08:20.582Z,22.72
2023-09-12T10:09:25.658Z,22.78
2023-09-12T10:10:31.514Z,22.81
2023-09-12T10:11:36.257Z,22.89
2023-09-12T10:12:42.343Z,22.93
2023-09-12T10:15:01.702Z,23.07
2023-09-12T10:16:05.885Z,22.95
2023-09-12T10:17:11.109Z,23.02
2023-09-12T10:19:28.696Z,23.07
2023-09-12T10:20:47.902Z,23.03
2023-09-12T10:22:03.702Z,23.12
2023-09-12T10:23:11.916Z,23.19
2023-09-12T10:24:16.398Z,23.20
2023-09-12T10:25:19.048Z,23.22
2023-09-12T10:26:24.039Z,23.24
2023-09-12T10:27:27.014Z,23.22
2023-09-12T10:28:29.837Z,23.17
2023-09-12T10:29:32.556Z,23.25
2023-09-12T10:30:37.288Z,23.29
2023-09-12T10:31:40.594Z,23.29
2023-09-12T10:32:46.850Z,23.26
2023-09-12T10:33:51.714Z,23.23
2023-09-12T10:34:56.869Z,23.29
2023-09-12T10:36:01.442Z,23.32
2023-09-12T10:37:05.926Z,23.27
2023-09-12T10:38:09.879Z,23.22
2023-09-12T10:39:13.217Z,23.23
2023-09-12T10:40:18.129Z,23.35
2023-09-12T10:41:23.399Z,23.38
2023-09-12T10:42:30.462Z,23.49
2023-09-12T10:43:36.335Z,23.56
2023-09-12T10:44:39.304Z,23.59
2023-09-12T10:45:42.275Z,23.66
2023-09-12T10:46:48.943Z,23.63
2023-09-12T10:47:51.991Z,23.61
2023-09-12T10:48:55.221Z,23.61
2023-09-12T10:49:57.765Z,23.62
2023-09-12T10:51:02.526Z,23.64
2023-09-12T10:52:05.803Z,23.59
2023-09-12T10:53:12.703Z,23.47
2023-09-12T10:55:37.580Z,23.64
2023-09-12T10:56:41.227Z,23.60
2023-09-12T10:58:05.090Z,23.68
2023-09-12T10:59:10.154Z,23.68
2023-09-12T11:00:13.906Z,23.83
2023-09-12T11:01:27.989Z,23.80
2023-09-12T11:02:39.886Z,23.80
2023-09-12T11:03:42.902Z,23.83
2023-09-12T11:04:45.542Z,23.65
2023-09-12T11:05:54.465Z,23.72
2023-09-12T11:06:58.811Z,23.83
2023-09-12T11:08:04.271Z,23.91
2023-09-12T11:09:20.545Z,24.00
2023-09-12T11:10:23.564Z,24.06
2023-09-12T11:11:25.911Z,24.12
2023-09-12T11:12:37.769Z,24.15
2023-09-12T11:13:44.559Z,24.13
2023-09-12T11:15:08.984Z,24.13
2023-09-12T11:17:29.471Z,24.38
2023-09-12T11:18:31.833Z,24.37
2023-09-12T11:19:49.846Z,24.52
2023-09-12T11:21:00.844Z,24.60
2023-09-12T11:22:06.726Z,24.62
2023-09-12T11:23:12.506Z,24.58
2023-09-12T11:24:16.346Z,24.56
2023-09-12T11:25:23.552Z,24.50
2023-09-12T11:26:26.267Z,24.50
2023-09-12T11:27:34.691Z,24.61
2023-09-12T11:28:37.450Z,24.75
2023-09-12T11:29:41.318Z,24.88
2023-09-12T11:30:53.861Z,24.99
2023-09-12T11:32:00.085Z,25.01
2023-09-12T11:33:06.257Z,25.00
2023-09-12T11:34:11.214Z,24.96
2023-09-12T11:35:15.088Z,24.90
2023-09-12T11:36:20.148Z,25.06
2023-09-12T11:37:27.239Z,25.19
2023-09-12T11:38:32.385Z,25.29
2023-09-12T11:39:36.814Z,25.32
2023-09-12T11:40:42.966Z,25.40
2023-09-12T11:41:45.326Z,25.45
2023-09-12T11:42:50.461Z,25.30
2023-09-12T11:43:53.441Z,25.40
2023-09-12T11:44:56.536Z,25.58
2023-09-12T11:46:01.211Z,25.74
2023-09-12T11:47:06.512Z,25.75
2023-09-12T11:48:09.682Z,25.87
2023-09-12T11:49:12.703Z,25.94
2023-09-12T11:50:32.647Z,26.04
2023-09-12T11:51:36.055Z,25.89
2023-09-12T11:52:39.358Z,26.02
2023-09-12T11:53:42.265Z,25.84
2023-09-12T11:54:46.308Z,25.94
2023-09-12T11:55:54.578Z,26.11
2023-09-12T11:56:58.940Z,26.24
2023-09-12T11:58:02.485Z,26.36
2023-09-12T11:59:05.177Z,26.34
2023-09-12T12:00:11.321Z,26.45
2023-09-12T12:01:17.311Z,26.41
2023-09-12T12:02:20.052Z,26.54
2023-09-12T12:03:25.085Z,26.59
2023-09-12T12:04:29.443Z,26.63
2023-09-12T12:05:35.792Z,26.55
2023-09-12T12:06:40.562Z,26.63
2023-09-12T12:07:45.559Z,26.72
2023-09-12T12:08:48.231Z,26.81
2023-09-12T12:09:51.645Z,26.84
2023-09-12T12:10:55.296Z,26.46
2023-09-12T12:12:01.930Z,26.58
2023-09-12T12:13:04.986Z,26.60
2023-09-12T12:14:12.488Z,26.63
2023-09-12T12:15:15.099Z,26.68
2023-09-12T12:16:18.612Z,26.89
2023-09-12T12:17:22.290Z,27.07
2023-09-12T12:18:25.235Z,27.24
2023-09-12T12:19:28.274Z,27.37
2023-09-12T12:20:30.918Z,27.49
2023-09-12T12:21:34.275Z,27.61
2023-09-12T12:22:40.874Z,27.62
2023-09-12T12:23:44.984Z,27.76
2023-09-12T12:24:48.357Z,27.87
2023-09-12T12:25:50.757Z,27.93
2023-09-12T12:26:57.806Z,28.01
2023-09-12T12:28:00.974Z,28.10
2023-09-12T12:29:05.577Z,28.17
2023-09-12T12:30:14.218Z,28.27
2023-09-12T12:31:17.651Z,28.32
2023-09-12T12:32:21.583Z,28.40
2023-09-12T12:34:48.381Z,28.47
2023-09-12T12:35:43.763Z,28.51
2023-09-12T12:35:45.464Z,28.58
2023-09-12T12:36:53.297Z,28.52
2023-09-12T12:38:00.849Z,28.56
2023-09-12T12:38:59.546Z,28.57
2023-09-12T12:40:04.883Z,28.65
2023-09-12T12:41:07.393Z,28.74
2023-09-12T12:42:10.171Z,28.75
2023-09-12T12:43:20.696Z,28.65
2023-09-12T12:44:23.596Z,28.48
2023-09-12T12:45:27.020Z,28.35
2023-09-12T12:46:29.852Z,28.41
2023-09-12T12:47:34.597Z,28.40
2023-09-12T12:48:37.797Z,28.40
2023-09-12T12:49:40.763Z,28.57
2023-09-12T12:50:43.929Z,28.70
2023-09-12T12:51:47.916Z,28.79
2023-09-12T12:52:50.576Z,28.90
2023-09-12T12:53:55.187Z,28.97
2023-09-12T12:56:19.641Z,29.21
2023-09-12T12:57:22.174Z,29.09
2023-09-12T12:58:24.778Z,29.00
2023-09-12T12:59:27.151Z,29.00
2023-09-12T13:00:30.323Z,29.16
2023-09-12T13:01:35.452Z,29.21
2023-09-12T13:02:38.894Z,29.28
2023-09-12T13:03:43.094Z,29.24
2023-09-12T13:04:46.559Z,29.29
2023-09-12T13:05:49.095Z,29.30
2023-09-12T13:06:51.514Z,29.31
2023-09-12T13:07:54.451Z,29.26
2023-09-12T13:09:00.756Z,29.28
2023-09-12T13:10:05.157Z,29.40
2023-09-12T13:11:09.326Z,29.41
2023-09-12T13:12:11.836Z,29.47
2023-09-12T13:13:14.285Z,29.58
2023-09-12T13:14:17.659Z,29.58
2023-09-12T13:15:20.477Z,29.63
2023-09-12T13:16:23.596Z,29.67
2023-09-12T13:17:26.884Z,29.60
2023-09-12T13:18:29.173Z,29.69
2023-09-12T13:19:32.188Z,29.55
2023-09-12T13:20:35.133Z,29.57
2023-09-12T13:21:38.228Z,29.62
2023-09-12T13:22:40.919Z,29.64
2023-09-12T13:23:44.256Z,29.65
2023-09-12T13:24:49.270Z,29.59
2023-09-12T13:25:52.103Z,29.70
2023-09-12T13:26:54.588Z,29.78
2023-09-12T13:27:57.058Z,29.86
2023-09-12T13:28:59.632Z,29.93
2023-09-12T13:30:03.346Z,29.99
2023-09-12T13:31:05.876Z,29.94
2023-09-12T13:32:08.185Z,30.02
2023-09-12T13:33:12.091Z,30.07
2023-09-12T13:34:14.720Z,30.15
2023-09-12T13:35:17.563Z,30.15
2023-09-12T13:36:20.322Z,30.05
2023-09-12T13:37:22.930Z,30.09
2023-09-12T13:38:26.963Z,30.15
2023-09-12T13:39:30.284Z,30.05
2023-09-12T13:40:33.459Z,30.11
2023-09-12T13:41:35.743Z,30.22
2023-09-12T13:42:38.302Z,30.31
2023-09-12T13:43:41.450Z,30.34
2023-09-12T13:44:44.175Z,30.34
2023-09-12T13:45:47.298Z,30.37
2023-09-12T13:46:50.119Z,30.47
2023-09-12T13:47:54.096Z,30.38
2023-09-12T13:48:59.224Z,30.38
2023-09-12T13:50:02.105Z,30.44
2023-09-12T13:51:04.188Z,30.34
2023-09-12T13:52:07.177Z,30.19
2023-09-12T13:53:09.614Z,30.25
2023-09-12T13:54:15.205Z,30.32
2023-09-12T13:55:29.666Z,30.37